sensor_id;sensor_type;location;lat;lon;timestamp;pressure;altitude;pressure_sealevel;temperature;humidity
67434;BME280;54305;47.950;6.572;2023-07-08T00:00:15;94297.31;;;21.87;50.65
67434;BME280;54305;47.950;6.572;2023-07-08T00:02:41;94291.78;;;21.77;50.10
67434;BME280;54305;47.950;6.572;2023-07-08T00:05:07;94295.31;;;21.71;50.51
67434;BME280;54305;47.950;6.572;2023-07-08T00:07:33;94304.44;;;21.75;50.78
67434;BME280;54305;47.950;6.572;2023-07-08T00:09:58;94294.75;;;21.69;49.92
67434;BME280;54305;47.950;6.572;2023-07-08T00:12:23;94298.41;;;21.68;50.50
67434;BME280;54305;47.950;6.572;2023-07-08T00:14:48;94295.88;;;21.62;50.98
67434;BME280;54305;47.950;6.572;2023-07-08T00:17:14;94288.00;;;21.55;50.35
67434;BME280;54305;47.950;6.572;2023-07-08T00:19:39;94285.94;;;21.57;50.91
67434;BME280;54305;47.950;6.572;2023-07-08T00:22:13;94302.22;;;21.61;50.14
67434;BME280;54305;47.950;6.572;2023-07-08T00:24:41;94300.22;;;21.56;50.48
67434;BME280;54305;47.950;6.572;2023-07-08T00:27:10;94302.22;;;21.61;51.85
67434;BME280;54305;47.950;6.572;2023-07-08T00:29:37;94293.53;;;21.42;53.28
67434;BME280;54305;47.950;6.572;2023-07-08T00:32:07;94295.59;;;21.40;52.18
67434;BME280;54305;47.950;6.572;2023-07-08T00:34:33;94282.66;;;21.32;52.56
67434;BME280;54305;47.950;6.572;2023-07-08T00:36:58;94286.25;;;21.26;52.42
67434;BME280;54305;47.950;6.572;2023-07-08T00:39:23;94278.38;;;21.20;53.81
67434;BME280;54305;47.950;6.572;2023-07-08T00:41:49;94287.72;;;21.22;53.37
67434;BME280;54305;47.950;6.572;2023-07-08T00:44:15;94275.63;;;21.26;52.19
67434;BME280;54305;47.950;6.572;2023-07-08T00:46:42;94286.09;;;21.21;53.67
67434;BME280;54305;47.950;6.572;2023-07-08T00:49:15;94285.84;;;21.11;54.08
67434;BME280;54305;47.950;6.572;2023-07-08T00:51:42;94290.03;;;21.19;53.19
67434;BME280;54305;47.950;6.572;2023-07-08T00:54:10;94285.50;;;21.08;53.84
67434;BME280;54305;47.950;6.572;2023-07-08T00:56:38;94281.69;;;21.04;54.47
67434;BME280;54305;47.950;6.572;2023-07-08T00:59:17;94287.13;;;21.09;52.89
67434;BME280;54305;47.950;6.572;2023-07-08T01:01:43;94290.34;;;21.11;54.15
67434;BME280;54305;47.950;6.572;2023-07-08T01:04:10;94288.50;;;21.11;54.02
67434;BME280;54305;47.950;6.572;2023-07-08T01:06:36;94279.25;;;21.02;55.00
67434;BME280;54305;47.950;6.572;2023-07-08T01:09:05;94285.91;;;20.93;55.88
67434;BME280;54305;47.950;6.572;2023-07-08T01:11:31;94291.34;;;20.98;55.25
67434;BME280;54305;47.950;6.572;2023-07-08T01:13:57;94296.97;;;21.02;54.61
67434;BME280;54305;47.950;6.572;2023-07-08T01:16:23;94303.09;;;21.02;55.01
67434;BME280;54305;47.950;6.572;2023-07-08T01:18:49;94305.47;;;20.92;56.46
67434;BME280;54305;47.950;6.572;2023-07-08T01:21:34;94315.50;;;20.90;56.89
67434;BME280;54305;47.950;6.572;2023-07-08T01:24:01;94314.72;;;20.83;58.38
67434;BME280;54305;47.950;6.572;2023-07-08T01:26:26;94322.97;;;20.75;57.99
67434;BME280;54305;47.950;6.572;2023-07-08T01:28:53;94326.38;;;20.64;57.96
67434;BME280;54305;47.950;6.572;2023-07-08T01:31:18;94334.91;;;20.66;60.72
67434;BME280;54305;47.950;6.572;2023-07-08T01:33:44;94336.66;;;20.72;57.69
67434;BME280;54305;47.950;6.572;2023-07-08T01:36:10;94339.03;;;20.62;60.66
67434;BME280;54305;47.950;6.572;2023-07-08T01:38:35;94341.00;;;20.67;59.50
67434;BME280;54305;47.950;6.572;2023-07-08T01:41:01;94358.13;;;20.64;61.44
67434;BME280;54305;47.950;6.572;2023-07-08T01:43:27;94350.03;;;20.59;61.50
67434;BME280;54305;47.950;6.572;2023-07-08T01:45:52;94354.91;;;20.62;60.57
67434;BME280;54305;47.950;6.572;2023-07-08T01:48:19;94359.84;;;20.59;61.57
67434;BME280;54305;47.950;6.572;2023-07-08T01:50:47;94352.81;;;20.46;62.33
67434;BME280;54305;47.950;6.572;2023-07-08T01:53:15;94354.97;;;20.38;61.87
67434;BME280;54305;47.950;6.572;2023-07-08T01:55:40;94365.63;;;20.31;64.06
67434;BME280;54305;47.950;6.572;2023-07-08T01:58:05;94365.34;;;20.39;63.46
67434;BME280;54305;47.950;6.572;2023-07-08T02:00:31;94355.94;;;20.43;62.93
67434;BME280;54305;47.950;6.572;2023-07-08T02:02:56;94354.63;;;20.52;62.65
67434;BME280;54305;47.950;6.572;2023-07-08T02:05:22;94359.16;;;20.45;63.69
67434;BME280;54305;47.950;6.572;2023-07-08T02:07:47;94351.00;;;20.47;61.28
67434;BME280;54305;47.950;6.572;2023-07-08T02:10:12;94356.66;;;20.50;65.49
67434;BME280;54305;47.950;6.572;2023-07-08T02:12:38;94346.53;;;20.47;66.68
67434;BME280;54305;47.950;6.572;2023-07-08T02:15:03;94340.84;;;20.43;64.13
67434;BME280;54305;47.950;6.572;2023-07-08T02:17:29;94338.06;;;20.38;64.84
67434;BME280;54305;47.950;6.572;2023-07-08T02:19:55;94339.78;;;20.33;65.95
67434;BME280;54305;47.950;6.572;2023-07-08T02:22:20;94339.00;;;20.26;67.24
67434;BME280;54305;47.950;6.572;2023-07-08T02:24:45;94335.72;;;20.31;66.06
67434;BME280;54305;47.950;6.572;2023-07-08T02:27:10;94330.28;;;20.43;65.27
67434;BME280;54305;47.950;6.572;2023-07-08T02:29:36;94323.09;;;20.51;65.20
67434;BME280;54305;47.950;6.572;2023-07-08T02:32:03;94321.25;;;20.51;65.03
67434;BME280;54305;47.950;6.572;2023-07-08T02:34:28;94326.84;;;20.61;65.76
67434;BME280;54305;47.950;6.572;2023-07-08T02:36:53;94330.06;;;20.63;65.31
67434;BME280;54305;47.950;6.572;2023-07-08T02:39:19;94343.63;;;20.67;65.34
67434;BME280;54305;47.950;6.572;2023-07-08T02:41:44;94343.59;;;20.91;59.74
67434;BME280;54305;47.950;6.572;2023-07-08T02:44:09;94337.66;;;20.89;65.72
67434;BME280;54305;47.950;6.572;2023-07-08T02:46:34;94340.75;;;20.86;64.80
67434;BME280;54305;47.950;6.572;2023-07-08T02:49:00;94343.84;;;20.83;64.14
67434;BME280;54305;47.950;6.572;2023-07-08T02:51:25;94354.75;;;20.93;62.00
67434;BME280;54305;47.950;6.572;2023-07-08T02:53:50;94356.97;;;20.96;60.29
67434;BME280;54305;47.950;6.572;2023-07-08T02:56:15;94373.94;;;21.07;59.06
67434;BME280;54305;47.950;6.572;2023-07-08T02:58:41;94373.56;;;21.03;60.82
67434;BME280;54305;47.950;6.572;2023-07-08T03:01:06;94392.22;;;21.08;57.17
67434;BME280;54305;47.950;6.572;2023-07-08T03:03:31;94434.38;;;21.28;54.53
67434;BME280;54305;47.950;6.572;2023-07-08T03:05:57;94445.09;;;21.33;61.79
67434;BME280;54305;47.950;6.572;2023-07-08T03:08:23;94461.63;;;21.17;69.05
67434;BME280;54305;47.950;6.572;2023-07-08T03:10:53;94443.31;;;20.97;77.85
67434;BME280;54305;47.950;6.572;2023-07-08T03:13:19;94420.34;;;20.73;91.16
67434;BME280;54305;47.950;6.572;2023-07-08T03:15:44;94416.88;;;20.55;97.05
67434;BME280;54305;47.950;6.572;2023-07-08T03:18:09;94429.25;;;20.36;100.00
67434;BME280;54305;47.950;6.572;2023-07-08T03:20:35;94426.44;;;20.31;100.00
67434;BME280;54305;47.950;6.572;2023-07-08T03:23:01;94434.22;;;20.26;100.00
67434;BME280;54305;47.950;6.572;2023-07-08T03:25:26;94434.69;;;20.23;100.00
67434;BME280;54305;47.950;6.572;2023-07-08T03:27:52;94443.97;;;20.08;100.00
67434;BME280;54305;47.950;6.572;2023-07-08T03:30:17;94463.34;;;19.95;100.00
67434;BME280;54305;47.950;6.572;2023-07-08T03:32:43;94485.81;;;19.79;100.00
67434;BME280;54305;47.950;6.572;2023-07-08T03:35:08;94482.34;;;19.48;100.00
67434;BME280;54305;47.950;6.572;2023-07-08T03:37:34;94477.97;;;19.29;100.00
67434;BME280;54305;47.950;6.572;2023-07-08T03:39:59;94480.25;;;19.06;100.00
67434;BME280;54305;47.950;6.572;2023-07-08T03:42:24;94490.69;;;18.88;100.00
67434;BME280;54305;47.950;6.572;2023-07-08T03:44:49;94497.59;;;18.89;100.00
67434;BME280;54305;47.950;6.572;2023-07-08T03:47:15;94503.72;;;18.70;100.00
67434;BME280;54305;47.950;6.572;2023-07-08T03:49:40;94504.75;;;18.62;100.00
67434;BME280;54305;47.950;6.572;2023-07-08T03:52:07;94495.63;;;18.58;100.00
67434;BME280;54305;47.950;6.572;2023-07-08T03:54:37;94491.19;;;18.59;100.00
67434;BME280;54305;47.950;6.572;2023-07-08T03:57:03;94494.41;;;18.61;100.00
67434;BME280;54305;47.950;6.572;2023-07-08T03:59:28;94485.91;;;18.52;100.00
67434;BME280;54305;47.950;6.572;2023-07-08T04:01:53;94476.97;;;18.53;100.00
67434;BME280;54305;47.950;6.572;2023-07-08T04:04:19;94474.97;;;18.49;100.00
67434;BME280;54305;47.950;6.572;2023-07-08T04:06:44;94477.41;;;18.50;100.00
67434;BME280;54305;47.950;6.572;2023-07-08T04:09:10;94479.81;;;18.52;100.00
67434;BME280;54305;47.950;6.572;2023-07-08T04:11:35;94488.34;;;18.54;100.00
67434;BME280;54305;47.950;6.572;2023-07-08T04:14:01;94486.31;;;18.43;100.00
67434;BME280;54305;47.950;6.572;2023-07-08T04:16:27;94506.63;;;18.36;100.00
67434;BME280;54305;47.950;6.572;2023-07-08T04:18:53;94518.78;;;18.24;100.00
67434;BME280;54305;47.950;6.572;2023-07-08T04:21:19;94506.81;;;18.21;100.00
67434;BME280;54305;47.950;6.572;2023-07-08T04:23:44;94510.63;;;18.19;100.00
67434;BME280;54305;47.950;6.572;2023-07-08T04:26:09;94513.06;;;18.14;100.00
67434;BME280;54305;47.950;6.572;2023-07-08T04:28:35;94508.81;;;18.13;100.00
67434;BME280;54305;47.950;6.572;2023-07-08T04:31:00;94508.59;;;18.08;100.00
67434;BME280;54305;47.950;6.572;2023-07-08T04:33:26;94509.44;;;18.08;100.00
67434;BME280;54305;47.950;6.572;2023-07-08T04:35:51;94508.22;;;18.11;100.00
67434;BME280;54305;47.950;6.572;2023-07-08T04:38:18;94530.50;;;18.02;100.00
67434;BME280;54305;47.950;6.572;2023-07-08T04:40:44;94525.84;;;17.97;100.00
67434;BME280;54305;47.950;6.572;2023-07-08T04:43:09;94541.03;;;18.02;100.00
67434;BME280;54305;47.950;6.572;2023-07-08T04:45:38;94528.88;;;18.01;100.00
67434;BME280;54305;47.950;6.572;2023-07-08T04:48:04;94527.69;;;18.03;100.00
67434;BME280;54305;47.950;6.572;2023-07-08T04:50:38;94537.38;;;18.03;100.00
67434;BME280;54305;47.950;6.572;2023-07-08T04:53:04;94533.53;;;17.99;100.00
67434;BME280;54305;47.950;6.572;2023-07-08T04:55:29;94532.94;;;17.97;100.00
67434;BME280;54305;47.950;6.572;2023-07-08T04:57:54;94536.56;;;17.89;100.00
67434;BME280;54305;47.950;6.572;2023-07-08T05:00:19;94536.16;;;17.86;100.00
67434;BME280;54305;47.950;6.572;2023-07-08T05:02:45;94523.38;;;17.76;100.00
67434;BME280;54305;47.950;6.572;2023-07-08T05:05:10;94538.16;;;17.77;100.00
67434;BME280;54305;47.950;6.572;2023-07-08T05:07:36;94527.03;;;17.82;100.00
67434;BME280;54305;47.950;6.572;2023-07-08T05:10:01;94529.69;;;17.88;100.00
67434;BME280;54305;47.950;6.572;2023-07-08T05:12:26;94536.97;;;17.93;100.00
67434;BME280;54305;47.950;6.572;2023-07-08T05:14:51;94536.16;;;17.99;100.00
67434;BME280;54305;47.950;6.572;2023-07-08T05:17:17;94529.69;;;18.08;100.00
67434;BME280;54305;47.950;6.572;2023-07-08T05:19:42;94532.53;;;18.13;100.00
67434;BME280;54305;47.950;6.572;2023-07-08T05:22:10;94522.81;;;18.20;100.00
67434;BME280;54305;47.950;6.572;2023-07-08T05:24:35;94523.81;;;18.25;100.00
67434;BME280;54305;47.950;6.572;2023-07-08T05:27:02;94524.44;;;18.27;100.00
67434;BME280;54305;47.950;6.572;2023-07-08T05:29:28;94526.06;;;18.22;100.00
67434;BME280;54305;47.950;6.572;2023-07-08T05:31:53;94523.22;;;18.30;100.00
67434;BME280;54305;47.950;6.572;2023-07-08T05:34:19;94514.91;;;18.33;100.00
67434;BME280;54305;47.950;6.572;2023-07-08T05:36:44;94515.53;;;18.35;100.00
67434;BME280;54305;47.950;6.572;2023-07-08T05:39:09;94520.00;;;18.47;100.00
67434;BME280;54305;47.950;6.572;2023-07-08T05:41:34;94526.06;;;18.48;100.00
67434;BME280;54305;47.950;6.572;2023-07-08T05:43:59;94531.56;;;18.53;100.00
67434;BME280;54305;47.950;6.572;2023-07-08T05:46:25;94527.28;;;18.52;100.00
67434;BME280;54305;47.950;6.572;2023-07-08T05:48:50;94539.25;;;18.54;100.00
67434;BME280;54305;47.950;6.572;2023-07-08T05:51:16;94546.78;;;18.51;100.00
67434;BME280;54305;47.950;6.572;2023-07-08T05:53:41;94550.63;;;18.42;100.00
67434;BME280;54305;47.950;6.572;2023-07-08T05:56:06;94542.31;;;18.45;100.00
67434;BME280;54305;47.950;6.572;2023-07-08T05:58:31;94550.03;;;18.46;100.00
67434;BME280;54305;47.950;6.572;2023-07-08T06:00:57;94557.09;;;18.33;100.00
67434;BME280;54305;47.950;6.572;2023-07-08T06:03:22;94546.97;;;18.43;100.00
67434;BME280;54305;47.950;6.572;2023-07-08T06:05:47;94560.94;;;18.30;100.00
67434;BME280;54305;47.950;6.572;2023-07-08T06:08:14;94560.13;;;18.17;100.00
67434;BME280;54305;47.950;6.572;2023-07-08T06:10:43;94565.22;;;18.25;100.00
67434;BME280;54305;47.950;6.572;2023-07-08T06:13:09;94559.75;;;18.26;100.00
67434;BME280;54305;47.950;6.572;2023-07-08T06:15:34;94567.03;;;18.24;100.00
67434;BME280;54305;47.950;6.572;2023-07-08T06:17:59;94573.13;;;18.25;100.00
67434;BME280;54305;47.950;6.572;2023-07-08T06:20:27;94575.38;;;18.41;100.00
67434;BME280;54305;47.950;6.572;2023-07-08T06:22:53;94577.41;;;18.52;100.00
67434;BME280;54305;47.950;6.572;2023-07-08T06:25:18;94580.25;;;18.57;100.00
67434;BME280;54305;47.950;6.572;2023-07-08T06:27:43;94585.31;;;18.65;100.00
67434;BME280;54305;47.950;6.572;2023-07-08T06:30:09;94584.50;;;18.84;100.00
67434;BME280;54305;47.950;6.572;2023-07-08T06:32:34;94582.03;;;18.95;100.00
67434;BME280;54305;47.950;6.572;2023-07-08T06:34:59;94578.78;;;19.00;100.00
67434;BME280;54305;47.950;6.572;2023-07-08T06:37:25;94578.78;;;18.93;100.00
67434;BME280;54305;47.950;6.572;2023-07-08T06:39:50;94583.28;;;18.93;100.00
67434;BME280;54305;47.950;6.572;2023-07-08T06:42:15;94585.72;;;18.81;100.00
67434;BME280;54305;47.950;6.572;2023-07-08T06:44:40;94580.81;;;18.91;100.00
67434;BME280;54305;47.950;6.572;2023-07-08T06:47:10;94588.09;;;19.09;100.00
67434;BME280;54305;47.950;6.572;2023-07-08T06:49:35;94593.19;;;19.04;100.00
67434;BME280;54305;47.950;6.572;2023-07-08T06:52:00;94592.16;;;19.05;100.00
67434;BME280;54305;47.950;6.572;2023-07-08T06:54:26;94599.06;;;19.06;100.00
67434;BME280;54305;47.950;6.572;2023-07-08T06:56:52;94595.63;;;18.99;100.00
67434;BME280;54305;47.950;6.572;2023-07-08T06:59:18;94595.25;;;19.02;100.00
67434;BME280;54305;47.950;6.572;2023-07-08T07:01:43;94593.00;;;18.99;100.00
67434;BME280;54305;47.950;6.572;2023-07-08T07:04:08;94601.13;;;19.04;100.00
67434;BME280;54305;47.950;6.572;2023-07-08T07:06:33;94601.09;;;19.10;100.00
67434;BME280;54305;47.950;6.572;2023-07-08T07:08:59;94598.06;;;19.13;100.00
67434;BME280;54305;47.950;6.572;2023-07-08T07:11:24;94596.22;;;19.14;100.00
67434;BME280;54305;47.950;6.572;2023-07-08T07:13:49;94593.75;;;19.19;100.00
67434;BME280;54305;47.950;6.572;2023-07-08T07:16:15;94602.72;;;19.24;100.00
67434;BME280;54305;47.950;6.572;2023-07-08T07:18:40;94604.75;;;19.29;100.00
67434;BME280;54305;47.950;6.572;2023-07-08T07:21:05;94601.88;;;19.37;100.00
67434;BME280;54305;47.950;6.572;2023-07-08T07:23:30;94601.88;;;19.37;100.00
67434;BME280;54305;47.950;6.572;2023-07-08T07:25:56;94603.47;;;19.51;100.00
67434;BME280;54305;47.950;6.572;2023-07-08T07:28:22;94602.84;;;19.49;100.00
67434;BME280;54305;47.950;6.572;2023-07-08T07:30:54;94600.56;;;19.59;100.00
67434;BME280;54305;47.950;6.572;2023-07-08T07:33:20;94605.84;;;19.65;100.00
67434;BME280;54305;47.950;6.572;2023-07-08T07:35:46;94608.06;;;19.75;100.00
67434;BME280;54305;47.950;6.572;2023-07-08T07:38:12;94600.00;;;19.94;100.00
67434;BME280;54305;47.950;6.572;2023-07-08T07:40:39;94602.25;;;20.35;100.00
67434;BME280;54305;47.950;6.572;2023-07-08T07:43:04;94597.63;;;20.55;100.00
67434;BME280;54305;47.950;6.572;2023-07-08T07:45:29;94598.66;;;20.79;100.00
67434;BME280;54305;47.950;6.572;2023-07-08T07:47:54;94602.69;;;21.30;100.00
67434;BME280;54305;47.950;6.572;2023-07-08T07:50:20;94591.19;;;21.36;100.00
67434;BME280;54305;47.950;6.572;2023-07-08T07:52:45;94585.75;;;21.49;100.00
67434;BME280;54305;47.950;6.572;2023-07-08T07:55:10;94584.88;;;21.55;100.00
67434;BME280;54305;47.950;6.572;2023-07-08T07:57:35;94582.06;;;21.86;100.00
67434;BME280;54305;47.950;6.572;2023-07-08T08:00:01;94578.03;;;22.13;100.00
67434;BME280;54305;47.950;6.572;2023-07-08T08:02:26;94569.13;;;22.37;100.00
67434;BME280;54305;47.950;6.572;2023-07-08T08:04:51;94576.03;;;22.38;100.00
67434;BME280;54305;47.950;6.572;2023-07-08T08:07:16;94576.56;;;22.58;100.00
67434;BME280;54305;47.950;6.572;2023-07-08T08:09:42;94573.59;;;22.66;92.13
67434;BME280;54305;47.950;6.572;2023-07-08T08:12:08;94578.44;;;22.69;87.45
67434;BME280;54305;47.950;6.572;2023-07-08T08:14:33;94567.69;;;22.76;87.98
67434;BME280;54305;47.950;6.572;2023-07-08T08:16:59;94569.44;;;22.70;95.58
67434;BME280;54305;47.950;6.572;2023-07-08T08:19:24;94564.22;;;22.64;94.16
67434;BME280;54305;47.950;6.572;2023-07-08T08:21:49;94569.44;;;22.70;100.00
67434;BME280;54305;47.950;6.572;2023-07-08T08:24:14;94569.28;;;22.54;96.27
67434;BME280;54305;47.950;6.572;2023-07-08T08:26:40;94564.44;;;22.51;93.66
67434;BME280;54305;47.950;6.572;2023-07-08T08:29:05;94563.81;;;22.78;99.32
67434;BME280;54305;47.950;6.572;2023-07-08T08:31:30;94565.28;;;22.97;100.00
67434;BME280;54305;47.950;6.572;2023-07-08T08:33:56;94564.88;;;23.23;93.50
67434;BME280;54305;47.950;6.572;2023-07-08T08:36:21;94562.84;;;23.53;88.91
67434;BME280;54305;47.950;6.572;2023-07-08T08:38:47;94562.69;;;23.71;90.27
67434;BME280;54305;47.950;6.572;2023-07-08T08:41:13;94559.00;;;23.72;86.58
67434;BME280;54305;47.950;6.572;2023-07-08T08:43:38;94559.06;;;23.89;89.07
67434;BME280;54305;47.950;6.572;2023-07-08T08:48:40;94560.47;;;24.19;85.74
67434;BME280;54305;47.950;6.572;2023-07-08T08:51:09;94561.81;;;24.33;80.76
67434;BME280;54305;47.950;6.572;2023-07-08T08:53:37;94556.75;;;24.20;78.68
67434;BME280;54305;47.950;6.572;2023-07-08T08:56:09;94552.59;;;24.41;75.45
67434;BME280;54305;47.950;6.572;2023-07-08T08:58:45;94557.28;;;24.50;83.30
67434;BME280;54305;47.950;6.572;2023-07-08T09:01:14;94543.59;;;24.58;75.96
67434;BME280;54305;47.950;6.572;2023-07-08T09:04:00;94556.34;;;24.89;78.20
67434;BME280;54305;47.950;6.572;2023-07-08T09:06:27;94553.28;;;25.14;74.44
67434;BME280;54305;47.950;6.572;2023-07-08T09:08:54;94559.22;;;25.21;69.52
67434;BME280;54305;47.950;6.572;2023-07-08T09:14:03;94552.63;;;25.61;68.02
67434;BME280;54305;47.950;6.572;2023-07-08T09:16:46;94543.97;;;25.92;67.81
67434;BME280;54305;47.950;6.572;2023-07-08T09:19:14;94541.75;;;25.89;62.93
67434;BME280;54305;47.950;6.572;2023-07-08T09:21:49;94545.53;;;25.29;65.74
67434;BME280;54305;47.950;6.572;2023-07-08T09:25:03;94532.44;;;25.11;69.42
67434;BME280;54305;47.950;6.572;2023-07-08T09:27:02;94543.44;;;24.98;77.86
67434;BME280;54305;47.950;6.572;2023-07-08T09:29:28;94541.78;;;25.13;72.35
67434;BME280;54305;47.950;6.572;2023-07-08T09:31:53;94544.44;;;25.46;71.72
67434;BME280;54305;47.950;6.572;2023-07-08T09:34:21;94546.63;;;25.49;70.62
67434;BME280;54305;47.950;6.572;2023-07-08T09:36:48;94545.31;;;25.73;73.94
67434;BME280;54305;47.950;6.572;2023-07-08T09:39:14;94537.91;;;26.23;73.16
67434;BME280;54305;47.950;6.572;2023-07-08T09:41:40;94533.16;;;26.30;70.34
67434;BME280;54305;47.950;6.572;2023-07-08T09:44:17;94533.09;;;26.83;66.29
67434;BME280;54305;47.950;6.572;2023-07-08T09:46:43;94534.78;;;26.89;57.08
67434;BME280;54305;47.950;6.572;2023-07-08T09:51:43;94529.94;;;26.28;63.63
67434;BME280;54305;47.950;6.572;2023-07-08T09:54:08;94533.75;;;26.37;64.84
67434;BME280;54305;47.950;6.572;2023-07-08T09:56:34;94538.09;;;26.43;63.50
67434;BME280;54305;47.950;6.572;2023-07-08T09:59:00;94542.84;;;26.36;71.42
67434;BME280;54305;47.950;6.572;2023-07-08T10:01:26;94532.25;;;26.46;72.70
67434;BME280;54305;47.950;6.572;2023-07-08T10:03:57;94544.34;;;26.54;65.04
67434;BME280;54305;47.950;6.572;2023-07-08T10:06:24;94539.84;;;26.06;64.02
67434;BME280;54305;47.950;6.572;2023-07-08T10:08:51;94543.91;;;25.66;65.05
67434;BME280;54305;47.950;6.572;2023-07-08T10:13:44;94548.00;;;25.73;67.22
67434;BME280;54305;47.950;6.572;2023-07-08T10:18:38;94554.13;;;25.74;69.93
67434;BME280;54305;47.950;6.572;2023-07-08T10:23:42;94562.69;;;25.54;67.51
67434;BME280;54305;47.950;6.572;2023-07-08T10:26:11;94564.72;;;25.14;70.46
67434;BME280;54305;47.950;6.572;2023-07-08T10:28:48;94564.34;;;24.73;71.24
67434;BME280;54305;47.950;6.572;2023-07-08T10:31:35;94576.50;;;24.52;73.74
67434;BME280;54305;47.950;6.572;2023-07-08T10:34:09;94571.94;;;24.97;77.44
67434;BME280;54305;47.950;6.572;2023-07-08T10:36:48;94565.50;;;24.93;70.33
67434;BME280;54305;47.950;6.572;2023-07-08T10:39:23;94571.38;;;25.12;73.69
67434;BME280;54305;47.950;6.572;2023-07-08T10:41:56;94573.56;;;25.15;70.71
67434;BME280;54305;47.950;6.572;2023-07-08T10:47:08;94580.75;;;24.65;70.66
67434;BME280;54305;47.950;6.572;2023-07-08T10:52:43;94577.81;;;24.66;72.74
67434;BME280;54305;47.950;6.572;2023-07-08T10:57:58;94578.91;;;24.82;77.09
67434;BME280;54305;47.950;6.572;2023-07-08T11:05:45;94602.84;;;24.65;69.58
67434;BME280;54305;47.950;6.572;2023-07-08T11:08:18;94604.25;;;24.56;71.70
67434;BME280;54305;47.950;6.572;2023-07-08T11:10:49;94604.56;;;24.43;68.79
67434;BME280;54305;47.950;6.572;2023-07-08T11:13:20;94607.44;;;24.25;69.20
67434;BME280;54305;47.950;6.572;2023-07-08T11:15:55;94606.31;;;24.38;70.95
67434;BME280;54305;47.950;6.572;2023-07-08T11:18:27;94612.16;;;23.95;68.32
67434;BME280;54305;47.950;6.572;2023-07-08T11:20:55;94612.38;;;24.05;72.45
67434;BME280;54305;47.950;6.572;2023-07-08T11:23:30;94610.09;;;23.74;71.28
67434;BME280;54305;47.950;6.572;2023-07-08T11:26:06;94604.41;;;23.82;70.78
67434;BME280;54305;47.950;6.572;2023-07-08T11:28:32;94601.81;;;24.10;71.13
67434;BME280;54305;47.950;6.572;2023-07-08T11:30:58;94602.09;;;24.25;75.35
67434;BME280;54305;47.950;6.572;2023-07-08T11:33:25;94604.44;;;24.50;70.29
67434;BME280;54305;47.950;6.572;2023-07-08T11:35:52;94600.44;;;24.64;72.58
67434;BME280;54305;47.950;6.572;2023-07-08T11:38:20;94603.19;;;24.85;74.27
67434;BME280;54305;47.950;6.572;2023-07-08T11:40:49;94600.44;;;24.97;66.78
67434;BME280;54305;47.950;6.572;2023-07-08T11:43:15;94593.59;;;25.17;68.76
67434;BME280;54305;47.950;6.572;2023-07-08T11:45:41;94597.69;;;25.41;67.50
67434;BME280;54305;47.950;6.572;2023-07-08T11:48:18;94593.91;;;25.75;67.79
67434;BME280;54305;47.950;6.572;2023-07-08T11:50:46;94593.00;;;26.08;70.71
67434;BME280;54305;47.950;6.572;2023-07-08T11:56:00;94587.19;;;26.90;62.73
67434;BME280;54305;47.950;6.572;2023-07-08T11:58:29;94581.78;;;27.17;60.25
67434;BME280;54305;47.950;6.572;2023-07-08T12:03:48;94581.03;;;27.21;60.93
67434;BME280;54305;47.950;6.572;2023-07-08T12:08:55;94577.91;;;27.34;57.78
67434;BME280;54305;47.950;6.572;2023-07-08T12:11:25;94582.56;;;27.54;55.79
67434;BME280;54305;47.950;6.572;2023-07-08T12:13:51;94585.06;;;27.70;56.29
67434;BME280;54305;47.950;6.572;2023-07-08T12:16:16;94576.38;;;27.43;54.23
67434;BME280;54305;47.950;6.572;2023-07-08T12:18:42;94568.97;;;27.65;56.04
67434;BME280;54305;47.950;6.572;2023-07-08T12:21:11;94573.94;;;27.42;55.51
67434;BME280;54305;47.950;6.572;2023-07-08T12:23:37;94585.16;;;27.85;52.64
67434;BME280;54305;47.950;6.572;2023-07-08T12:26:08;94570.44;;;28.54;52.88
67434;BME280;54305;47.950;6.572;2023-07-08T12:28:36;94570.50;;;28.99;52.23
67434;BME280;54305;47.950;6.572;2023-07-08T12:31:01;94579.28;;;28.65;46.63
67434;BME280;54305;47.950;6.572;2023-07-08T12:33:31;94571.00;;;28.76;48.36
67434;BME280;54305;47.950;6.572;2023-07-08T12:35:57;94567.53;;;28.81;48.55
67434;BME280;54305;47.950;6.572;2023-07-08T12:38:31;94568.28;;;28.46;46.95
67434;BME280;54305;47.950;6.572;2023-07-08T12:41:01;94568.34;;;27.95;47.48
67434;BME280;54305;47.950;6.572;2023-07-08T12:43:27;94568.25;;;28.41;45.57
67434;BME280;54305;47.950;6.572;2023-07-08T12:45:52;94572.06;;;28.60;45.03
67434;BME280;54305;47.950;6.572;2023-07-08T12:48:18;94555.44;;;28.53;46.26
67434;BME280;54305;47.950;6.572;2023-07-08T12:50:43;94564.31;;;29.29;46.62
67434;BME280;54305;47.950;6.572;2023-07-08T12:53:10;94561.78;;;29.87;44.92
67434;BME280;54305;47.950;6.572;2023-07-08T12:55:37;94564.28;;;29.59;45.48
67434;BME280;54305;47.950;6.572;2023-07-08T12:58:04;94556.47;;;29.52;41.42
67434;BME280;54305;47.950;6.572;2023-07-08T13:00:30;94551.97;;;30.21;40.55
67434;BME280;54305;47.950;6.572;2023-07-08T13:03:03;94556.63;;;30.01;40.33
67434;BME280;54305;47.950;6.572;2023-07-08T13:05:30;94551.63;;;29.74;40.49
67434;BME280;54305;47.950;6.572;2023-07-08T13:07:55;94545.97;;;30.39;40.83
67434;BME280;54305;47.950;6.572;2023-07-08T13:10:23;94551.72;;;31.05;40.50
67434;BME280;54305;47.950;6.572;2023-07-08T13:12:52;94552.31;;;31.59;42.37
67434;BME280;54305;47.950;6.572;2023-07-08T13:15:21;94549.16;;;30.90;39.97
67434;BME280;54305;47.950;6.572;2023-07-08T13:17:47;94548.59;;;30.93;42.38
67434;BME280;54305;47.950;6.572;2023-07-08T13:20:14;94550.94;;;30.07;41.88
67434;BME280;54305;47.950;6.572;2023-07-08T13:22:40;94558.53;;;29.95;43.47
67434;BME280;54305;47.950;6.572;2023-07-08T13:25:12;94555.44;;;28.53;44.72
67434;BME280;54305;47.950;6.572;2023-07-08T13:27:38;94559.72;;;28.69;43.65
67434;BME280;54305;47.950;6.572;2023-07-08T13:30:23;94551.16;;;29.27;46.40